LPCC weather

Dr. Nélio Mendonça Hospital Heliport
Funchal, Autonomous Region of Madeira, Portugal

Public forecast

Using degrees Celsius for public forecast. Weather courtesy of forecast.io.

Closest aviation weather report (METAR) to Dr. Nélio Mendonça Hospital Heliport

Closest report is Madeira Airport, 8.1 nm (15.0 km) ENE. Retrieved 2020/06/03 16:00 UTC (28 minutes ago):

LPMA 031600Z 21018KT 9999 FEW016 22/14 Q1011

Closest aviation forecast (TAF) to Dr. Nélio Mendonça Hospital Heliport

Closest forecast is Madeira Airport, 8.1 nm (15.0 km) ENE. Retrieved 2020/06/03 12:18 UTC (4 hours ago):

TAF LPMA 031100Z 0312/0412 21015KT 9999 SCT016 BECMG 0318/0321 24010KT PROB30 TEMPO 0321/0412 6000 -RADZ SCT008 BKN013